sensor_id;sensor_type;location;lat;lon;timestamp;pressure;altitude;pressure_sealevel;temperature;humidity
59513;BME280;45330;51.634;5.562;2022-10-26T00:02:17;101335.34;;;9.34;100.00
59513;BME280;45330;51.634;5.562;2022-10-26T00:04:42;101324.94;;;9.34;100.00
59513;BME280;45330;51.634;5.562;2022-10-26T00:07:08;101326.69;;;9.38;100.00
59513;BME280;45330;51.634;5.562;2022-10-26T00:09:34;101327.56;;;9.43;100.00
59513;BME280;45330;51.634;5.562;2022-10-26T00:11:59;101313.69;;;9.35;100.00
59513;BME280;45330;51.634;5.562;2022-10-26T00:14:25;101313.72;;;9.41;100.00
59513;BME280;45330;51.634;5.562;2022-10-26T00:16:51;101310.28;;;9.42;100.00
59513;BME280;45330;51.634;5.562;2022-10-26T00:19:16;101312.06;;;9.51;100.00
59513;BME280;45330;51.634;5.562;2022-10-26T00:21:41;101313.81;;;9.55;100.00
59513;BME280;45330;51.634;5.562;2022-10-26T00:24:07;101305.13;;;9.55;100.00
59513;BME280;45330;51.634;5.562;2022-10-26T00:26:32;101313.81;;;9.58;100.00
59513;BME280;45330;51.634;5.562;2022-10-26T00:28:57;101311.22;;;9.60;100.00
59513;BME280;45330;51.634;5.562;2022-10-26T00:31:23;101310.38;;;9.63;100.00
59513;BME280;45330;51.634;5.562;2022-10-26T00:33:53;101279.16;;;9.53;100.00
59513;BME280;45330;51.634;5.562;2022-10-26T00:36:20;101298.25;;;9.65;100.00
59513;BME280;45330;51.634;5.562;2022-10-26T00:38:49;101273.13;;;9.59;100.00
59513;BME280;45330;51.634;5.562;2022-10-26T00:41:17;101288.75;;;9.70;100.00
59513;BME280;45330;51.634;5.562;2022-10-26T00:43:43;101289.66;;;9.72;100.00
59513;BME280;45330;51.634;5.562;2022-10-26T00:46:21;101293.13;;;9.74;100.00
59513;BME280;45330;51.634;5.562;2022-10-26T00:48:51;101280.97;;;9.71;100.00
59513;BME280;45330;51.634;5.562;2022-10-26T00:51:31;101275.81;;;9.79;100.00
59513;BME280;45330;51.634;5.562;2022-10-26T00:53:59;101268.03;;;9.77;100.00
59513;BME280;45330;51.634;5.562;2022-10-26T00:56:27;101253.28;;;9.72;100.00
59513;BME280;45330;51.634;5.562;2022-10-26T00:58:54;101257.63;;;9.81;100.00
59513;BME280;45330;51.634;5.562;2022-10-26T01:01:22;101249.78;;;9.70;100.00
59513;BME280;45330;51.634;5.562;2022-10-26T01:03:48;101264.53;;;9.75;100.00
59513;BME280;45330;51.634;5.562;2022-10-26T01:06:13;101281.03;;;9.87;100.00
59513;BME280;45330;51.634;5.562;2022-10-26T01:08:41;101282.78;;;9.83;100.00
59513;BME280;45330;51.634;5.562;2022-10-26T01:11:07;101274.94;;;9.80;100.00
59513;BME280;45330;51.634;5.562;2022-10-26T01:13:33;101274.09;;;9.79;100.00
59513;BME280;45330;51.634;5.562;2022-10-26T01:17:02;101293.19;;;9.91;100.00
59513;BME280;45330;51.634;5.562;2022-10-26T01:27:21;101280.19;;;9.88;100.00
59513;BME280;45330;51.634;5.562;2022-10-26T01:30:11;101271.50;;;9.86;100.00
59513;BME280;45330;51.634;5.562;2022-10-26T01:35:47;101260.22;;;9.77;100.00
59513;BME280;45330;51.634;5.562;2022-10-26T01:41:04;101269.72;;;9.78;100.00
59513;BME280;45330;51.634;5.562;2022-10-26T01:43:35;101239.38;;;9.67;100.00
59513;BME280;45330;51.634;5.562;2022-10-26T01:46:04;101240.25;;;9.67;100.00
59513;BME280;45330;51.634;5.562;2022-10-26T01:48:32;101235.03;;;9.69;100.00
59513;BME280;45330;51.634;5.562;2022-10-26T01:50:58;101250.69;;;9.76;100.00
59513;BME280;45330;51.634;5.562;2022-10-26T01:53:26;101237.66;;;9.70;100.00
59513;BME280;45330;51.634;5.562;2022-10-26T01:55:54;101242.00;;;9.76;100.00
59513;BME280;45330;51.634;5.562;2022-10-26T02:08:56;101217.75;;;9.78;100.00
59513;BME280;45330;51.634;5.562;2022-10-26T02:11:41;101212.56;;;9.75;100.00
59513;BME280;45330;51.634;5.562;2022-10-26T02:14:21;101215.16;;;9.75;100.00
59513;BME280;45330;51.634;5.562;2022-10-26T02:16:57;101216.03;;;9.81;100.00
59513;BME280;45330;51.634;5.562;2022-10-26T02:22:08;101215.16;;;9.82;100.00
59513;BME280;45330;51.634;5.562;2022-10-26T02:24:36;101209.09;;;9.73;100.00
59513;BME280;45330;51.634;5.562;2022-10-26T02:27:04;101219.50;;;9.81;100.00
59513;BME280;45330;51.634;5.562;2022-10-26T02:29:32;101201.25;;;9.67;100.00
59513;BME280;45330;51.634;5.562;2022-10-26T02:32:00;101206.47;;;9.66;100.00
59513;BME280;45330;51.634;5.562;2022-10-26T02:34:27;101216.00;;;9.74;100.00
59513;BME280;45330;51.634;5.562;2022-10-26T02:36:56;101214.28;;;9.73;100.00
59513;BME280;45330;51.634;5.562;2022-10-26T02:39:25;101209.09;;;9.73;100.00
59513;BME280;45330;51.634;5.562;2022-10-26T02:41:53;101206.50;;;9.73;100.00
59513;BME280;45330;51.634;5.562;2022-10-26T02:44:29;101192.63;;;9.67;100.00
59513;BME280;45330;51.634;5.562;2022-10-26T02:46:55;101205.66;;;9.77;100.00
59513;BME280;45330;51.634;5.562;2022-10-26T02:49:22;101183.97;;;9.69;100.00
59513;BME280;45330;51.634;5.562;2022-10-26T02:52:01;101198.72;;;9.79;100.00
59513;BME280;45330;51.634;5.562;2022-10-26T02:54:34;101200.44;;;9.79;100.00
59513;BME280;45330;51.634;5.562;2022-10-26T02:57:11;101178.75;;;9.68;100.00
59513;BME280;45330;51.634;5.562;2022-10-26T02:59:39;101172.69;;;9.69;100.00
59513;BME280;45330;51.634;5.562;2022-10-26T03:02:06;101183.97;;;9.78;100.00
59513;BME280;45330;51.634;5.562;2022-10-26T03:04:32;101172.69;;;9.67;100.00
59513;BME280;45330;51.634;5.562;2022-10-26T03:06:58;101173.56;;;9.66;100.00
59513;BME280;45330;51.634;5.562;2022-10-26T03:09:24;101177.88;;;9.69;100.00
59513;BME280;45330;51.634;5.562;2022-10-26T03:11:49;101184.81;;;9.73;100.00
59513;BME280;45330;51.634;5.562;2022-10-26T03:14:15;101185.72;;;9.72;100.00
59513;BME280;45330;51.634;5.562;2022-10-26T03:16:40;101173.56;;;9.66;100.00
59513;BME280;45330;51.634;5.562;2022-10-26T03:19:06;101184.81;;;9.74;100.00
59513;BME280;45330;51.634;5.562;2022-10-26T03:21:31;101177.91;;;9.72;100.00
59513;BME280;45330;51.634;5.562;2022-10-26T03:23:56;101164.00;;;9.59;100.00
59513;BME280;45330;51.634;5.562;2022-10-26T03:26:22;101182.22;;;9.68;100.00
59513;BME280;45330;51.634;5.562;2022-10-26T03:28:48;101183.97;;;9.68;100.00
59513;BME280;45330;51.634;5.562;2022-10-26T03:31:13;101171.78;;;9.59;100.00
59513;BME280;45330;51.634;5.562;2022-10-26T03:33:38;101172.66;;;9.58;100.00
59513;BME280;45330;51.634;5.562;2022-10-26T03:36:04;101185.66;;;9.69;100.00
59513;BME280;45330;51.634;5.562;2022-10-26T03:38:30;101182.22;;;9.73;100.00
59513;BME280;45330;51.634;5.562;2022-10-26T03:40:55;101190.03;;;9.74;100.00
59513;BME280;45330;51.634;5.562;2022-10-26T03:43:20;101175.31;;;9.72;100.00
59513;BME280;45330;51.634;5.562;2022-10-26T03:45:46;101172.72;;;9.76;100.00
59513;BME280;45330;51.634;5.562;2022-10-26T03:48:11;101183.13;;;9.86;100.00
59513;BME280;45330;51.634;5.562;2022-10-26T03:50:36;101175.34;;;9.89;100.00
59513;BME280;45330;51.634;5.562;2022-10-26T03:53:02;101183.16;;;9.92;100.00
59513;BME280;45330;51.634;5.562;2022-10-26T03:55:27;101162.31;;;9.84;100.00
59513;BME280;45330;51.634;5.562;2022-10-26T03:57:52;101167.53;;;9.83;100.00
59513;BME280;45330;51.634;5.562;2022-10-26T04:00:18;101184.84;;;9.88;100.00
59513;BME280;45330;51.634;5.562;2022-10-26T04:02:45;101175.31;;;9.84;100.00
59513;BME280;45330;51.634;5.562;2022-10-26T04:05:15;101176.22;;;9.85;100.00
59513;BME280;45330;51.634;5.562;2022-10-26T04:07:41;101164.06;;;9.79;100.00
59513;BME280;45330;51.634;5.562;2022-10-26T04:10:07;101161.47;;;9.79;100.00
59513;BME280;45330;51.634;5.562;2022-10-26T04:12:36;101164.03;;;9.74;100.00
59513;BME280;45330;51.634;5.562;2022-10-26T04:15:02;101156.22;;;9.74;100.00
59513;BME280;45330;51.634;5.562;2022-10-26T04:17:27;101156.22;;;9.73;100.00
59513;BME280;45330;51.634;5.562;2022-10-26T04:19:52;101166.63;;;9.76;100.00
59513;BME280;45330;51.634;5.562;2022-10-26T04:22:18;101179.66;;;9.85;100.00
59513;BME280;45330;51.634;5.562;2022-10-26T04:24:43;101159.72;;;9.76;100.00
59513;BME280;45330;51.634;5.562;2022-10-26T04:27:08;101170.13;;;9.86;100.00
59513;BME280;45330;51.634;5.562;2022-10-26T04:29:34;101161.44;;;9.76;100.00
59513;BME280;45330;51.634;5.562;2022-10-26T04:31:59;101180.56;;;9.90;100.00
59513;BME280;45330;51.634;5.562;2022-10-26T04:34:24;101150.19;;;9.75;100.00
59513;BME280;45330;51.634;5.562;2022-10-26T04:36:50;101154.53;;;9.79;100.00
59513;BME280;45330;51.634;5.562;2022-10-26T04:39:15;101168.41;;;9.91;100.00
59513;BME280;45330;51.634;5.562;2022-10-26T04:41:40;101144.97;;;9.78;100.00
59513;BME280;45330;51.634;5.562;2022-10-26T04:44:06;101150.19;;;9.82;100.00
59513;BME280;45330;51.634;5.562;2022-10-26T04:46:31;101150.19;;;9.82;100.00
59513;BME280;45330;51.634;5.562;2022-10-26T04:48:56;101151.94;;;9.84;100.00
59513;BME280;45330;51.634;5.562;2022-10-26T04:51:22;101144.13;;;9.84;100.00
59513;BME280;45330;51.634;5.562;2022-10-26T04:53:47;101156.28;;;9.90;100.00
59513;BME280;45330;51.634;5.562;2022-10-26T04:56:12;101162.34;;;9.98;100.00
59513;BME280;45330;51.634;5.562;2022-10-26T04:58:38;101164.09;;;10.02;100.00
59513;BME280;45330;51.634;5.562;2022-10-26T05:01:03;101159.78;;;10.03;100.00
59513;BME280;45330;51.634;5.562;2022-10-26T05:03:29;101144.16;;;9.92;100.00
59513;BME280;45330;51.634;5.562;2022-10-26T05:05:57;101148.50;;;9.98;100.00
59513;BME280;45330;51.634;5.562;2022-10-26T05:08:23;101168.44;;;10.08;100.00
59513;BME280;45330;51.634;5.562;2022-10-26T05:10:49;101144.16;;;10.00;100.00
59513;BME280;45330;51.634;5.562;2022-10-26T05:13:14;101152.81;;;10.11;100.00
59513;BME280;45330;51.634;5.562;2022-10-26T05:15:40;101161.50;;;10.18;100.00
59513;BME280;45330;51.634;5.562;2022-10-26T05:18:05;101162.38;;;10.21;100.00
59513;BME280;45330;51.634;5.562;2022-10-26T05:20:33;101157.19;;;10.27;100.00
59513;BME280;45330;51.634;5.562;2022-10-26T05:23:01;101153.72;;;10.30;100.00
59513;BME280;45330;51.634;5.562;2022-10-26T05:25:29;101158.94;;;10.35;100.00
59513;BME280;45330;51.634;5.562;2022-10-26T05:27:59;101158.94;;;10.36;100.00
59513;BME280;45330;51.634;5.562;2022-10-26T05:30:24;101165.03;;;10.52;100.00
59513;BME280;45330;51.634;5.562;2022-10-26T05:32:54;101161.53;;;10.49;100.00
59513;BME280;45330;51.634;5.562;2022-10-26T05:35:19;101155.50;;;10.46;100.00
59513;BME280;45330;51.634;5.562;2022-10-26T05:37:45;101161.53;;;10.47;100.00
59513;BME280;45330;51.634;5.562;2022-10-26T05:40:11;101169.34;;;10.52;100.00
59513;BME280;45330;51.634;5.562;2022-10-26T05:42:36;101170.22;;;10.55;100.00
59513;BME280;45330;51.634;5.562;2022-10-26T05:45:01;101171.09;;;10.48;100.00
59513;BME280;45330;51.634;5.562;2022-10-26T05:47:27;101179.75;;;10.50;100.00
59513;BME280;45330;51.634;5.562;2022-10-26T05:49:52;101178.03;;;10.44;100.00
59513;BME280;45330;51.634;5.562;2022-10-26T05:52:17;101178.88;;;10.39;100.00
59513;BME280;45330;51.634;5.562;2022-10-26T05:54:43;101166.72;;;10.28;100.00
59513;BME280;45330;51.634;5.562;2022-10-26T05:57:11;101188.44;;;10.38;100.00
59513;BME280;45330;51.634;5.562;2022-10-26T05:59:37;101194.50;;;10.42;100.00
59513;BME280;45330;51.634;5.562;2022-10-26T06:02:12;101175.44;;;10.35;100.00
59513;BME280;45330;51.634;5.562;2022-10-26T06:04:44;101177.19;;;10.39;100.00
59513;BME280;45330;51.634;5.562;2022-10-26T06:07:18;101197.09;;;10.50;100.00
59513;BME280;45330;51.634;5.562;2022-10-26T06:09:47;101194.50;;;10.53;100.00
59513;BME280;45330;51.634;5.562;2022-10-26T06:12:13;101204.03;;;10.55;100.00
59513;BME280;45330;51.634;5.562;2022-10-26T06:14:39;101204.91;;;10.59;100.00
59513;BME280;45330;51.634;5.562;2022-10-26T06:19:57;101202.31;;;10.62;100.00
59513;BME280;45330;51.634;5.562;2022-10-26T06:27:45;101208.38;;;10.66;100.00
59513;BME280;45330;51.634;5.562;2022-10-26T06:30:12;101198.84;;;10.60;100.00
59513;BME280;45330;51.634;5.562;2022-10-26T06:32:39;101191.91;;;10.60;100.00
59513;BME280;45330;51.634;5.562;2022-10-26T06:35:18;101215.31;;;10.73;100.00
59513;BME280;45330;51.634;5.562;2022-10-26T06:37:48;101216.19;;;10.76;100.00
59513;BME280;45330;51.634;5.562;2022-10-26T06:40:15;101197.09;;;10.68;100.00
59513;BME280;45330;51.634;5.562;2022-10-26T06:42:40;101203.19;;;10.72;100.00
59513;BME280;45330;51.634;5.562;2022-10-26T06:45:10;101208.34;;;10.69;100.00
59513;BME280;45330;51.634;5.562;2022-10-26T06:47:48;101211.84;;;10.71;100.00
59513;BME280;45330;51.634;5.562;2022-10-26T06:50:43;101207.50;;;10.65;100.00
59513;BME280;45330;51.634;5.562;2022-10-26T06:53:29;101196.22;;;10.63;100.00
59513;BME280;45330;51.634;5.562;2022-10-26T06:55:58;101183.22;;;10.57;100.00
59513;BME280;45330;51.634;5.562;2022-10-26T06:58:28;101191.91;;;10.65;100.00
59513;BME280;45330;51.634;5.562;2022-10-26T07:00:54;101170.22;;;10.57;100.00
59513;BME280;45330;51.634;5.562;2022-10-26T07:03:20;101191.03;;;10.68;100.00
59513;BME280;45330;51.634;5.562;2022-10-26T07:05:46;101177.16;;;10.56;100.00
59513;BME280;45330;51.634;5.562;2022-10-26T07:08:11;101189.28;;;10.68;100.00
59513;BME280;45330;51.634;5.562;2022-10-26T07:10:37;101184.09;;;10.65;100.00
59513;BME280;45330;51.634;5.562;2022-10-26T07:13:06;101196.25;;;10.66;100.00
59513;BME280;45330;51.634;5.562;2022-10-26T07:15:33;101200.56;;;10.67;100.00
59513;BME280;45330;51.634;5.562;2022-10-26T07:17:59;101189.28;;;10.57;100.00
59513;BME280;45330;51.634;5.562;2022-10-26T07:20:24;101198.81;;;10.63;100.00
59513;BME280;45330;51.634;5.562;2022-10-26T07:22:53;101212.72;;;10.68;100.00
59513;BME280;45330;51.634;5.562;2022-10-26T07:25:19;101213.56;;;10.67;100.00
59513;BME280;45330;51.634;5.562;2022-10-26T07:27:45;101221.38;;;10.70;100.00
59513;BME280;45330;51.634;5.562;2022-10-26T07:30:11;101217.03;;;10.72;100.00
59513;BME280;45330;51.634;5.562;2022-10-26T07:32:36;101193.63;;;10.60;100.00
59513;BME280;45330;51.634;5.562;2022-10-26T07:35:02;101230.03;;;10.78;100.00
59513;BME280;45330;51.634;5.562;2022-10-26T07:37:27;101230.94;;;10.80;100.00
59513;BME280;45330;51.634;5.562;2022-10-26T07:39:52;101248.28;;;10.85;100.00
59513;BME280;45330;51.634;5.562;2022-10-26T07:42:18;101254.34;;;10.87;100.00
59513;BME280;45330;51.634;5.562;2022-10-26T07:44:43;101253.47;;;10.89;100.00
59513;BME280;45330;51.634;5.562;2022-10-26T07:47:09;101239.59;;;10.87;100.00
59513;BME280;45330;51.634;5.562;2022-10-26T07:49:34;101236.97;;;10.96;100.00
59513;BME280;45330;51.634;5.562;2022-10-26T07:51:59;101240.41;;;11.09;100.00
59513;BME280;45330;51.634;5.562;2022-10-26T07:54:25;101229.13;;;11.10;100.00
59513;BME280;45330;51.634;5.562;2022-10-26T07:56:50;101247.34;;;11.26;100.00
59513;BME280;45330;51.634;5.562;2022-10-26T07:59:16;101250.81;;;11.31;100.00
59513;BME280;45330;51.634;5.562;2022-10-26T08:01:42;101258.56;;;11.42;100.00
59513;BME280;45330;51.634;5.562;2022-10-26T08:04:08;101280.28;;;11.58;100.00
59513;BME280;45330;51.634;5.562;2022-10-26T08:06:33;101277.53;;;11.84;100.00
59513;BME280;45330;51.634;5.562;2022-10-26T08:08:58;101261.78;;;12.15;100.00
59513;BME280;45330;51.634;5.562;2022-10-26T08:11:24;101248.63;;;12.32;100.00
59513;BME280;45330;51.634;5.562;2022-10-26T08:13:53;101264.16;;;12.50;100.00
59513;BME280;45330;51.634;5.562;2022-10-26T08:16:19;101267.50;;;12.68;100.00
59513;BME280;45330;51.634;5.562;2022-10-26T08:18:49;101270.09;;;12.74;100.00
59513;BME280;45330;51.634;5.562;2022-10-26T08:21:14;101282.88;;;13.02;100.00
59513;BME280;45330;51.634;5.562;2022-10-26T08:23:40;101284.50;;;13.15;100.00
59513;BME280;45330;51.634;5.562;2022-10-26T08:26:06;101273.16;;;13.19;100.00
59513;BME280;45330;51.634;5.562;2022-10-26T08:28:32;101273.88;;;13.35;100.00
59513;BME280;45330;51.634;5.562;2022-10-26T08:30:57;101271.94;;;13.51;100.00
59513;BME280;45330;51.634;5.562;2022-10-26T08:33:23;101252.91;;;13.38;100.00
59513;BME280;45330;51.634;5.562;2022-10-26T08:35:57;101275.47;;;13.50;100.00
59513;BME280;45330;51.634;5.562;2022-10-26T08:38:23;101280.63;;;13.55;100.00
59513;BME280;45330;51.634;5.562;2022-10-26T08:40:48;101290.13;;;13.62;100.00
59513;BME280;45330;51.634;5.562;2022-10-26T08:46:03;101293.63;;;13.61;100.00
59513;BME280;45330;51.634;5.562;2022-10-26T08:48:33;101286.72;;;13.55;100.00
59513;BME280;45330;51.634;5.562;2022-10-26T08:51:02;101303.19;;;13.64;100.00
59513;BME280;45330;51.634;5.562;2022-10-26T08:53:39;101277.16;;;13.51;100.00
59513;BME280;45330;51.634;5.562;2022-10-26T08:56:20;101296.22;;;13.66;100.00
59513;BME280;45330;51.634;5.562;2022-10-26T08:58:54;101286.66;;;13.62;100.00
59513;BME280;45330;51.634;5.562;2022-10-26T09:01:20;101276.22;;;13.60;100.00
59513;BME280;45330;51.634;5.562;2022-10-26T09:03:46;101294.28;;;13.80;100.00
59513;BME280;45330;51.634;5.562;2022-10-26T09:20:05;101288.38;;;14.30;100.00
59513;BME280;45330;51.634;5.562;2022-10-26T09:23:01;101291.81;;;14.35;100.00
59513;BME280;45330;51.634;5.562;2022-10-26T09:25:37;101304.72;;;14.49;100.00
59513;BME280;45330;51.634;5.562;2022-10-26T09:28:03;101291.59;;;14.50;100.00
59513;BME280;45330;51.634;5.562;2022-10-26T09:30:30;101304.56;;;14.56;100.00
59513;BME280;45330;51.634;5.562;2022-10-26T09:33:03;101293.19;;;14.59;100.00
59513;BME280;45330;51.634;5.562;2022-10-26T09:38:13;101316.50;;;14.78;100.00
59513;BME280;45330;51.634;5.562;2022-10-26T09:43:19;101321.38;;;15.01;100.00
59513;BME280;45330;51.634;5.562;2022-10-26T09:45:50;101321.97;;;15.17;100.00
59513;BME280;45330;51.634;5.562;2022-10-26T09:48:26;101340.88;;;15.36;100.00
59513;BME280;45330;51.634;5.562;2022-10-26T09:50:55;101342.38;;;15.49;100.00
59513;BME280;45330;51.634;5.562;2022-10-26T09:53:22;101355.19;;;15.65;100.00
59513;BME280;45330;51.634;5.562;2022-10-26T09:55:58;101346.31;;;15.72;100.00
59513;BME280;45330;51.634;5.562;2022-10-26T09:58:30;101347.06;;;15.78;100.00
59513;BME280;45330;51.634;5.562;2022-10-26T10:00:57;101351.34;;;15.84;100.00
59513;BME280;45330;51.634;5.562;2022-10-26T10:03:28;101346.13;;;15.83;100.00
59513;BME280;45330;51.634;5.562;2022-10-26T10:08:40;101361.47;;;16.03;100.00
59513;BME280;45330;51.634;5.562;2022-10-26T10:11:08;101367.53;;;16.06;100.00
59513;BME280;45330;51.634;5.562;2022-10-26T10:13:36;101362.44;;;15.99;100.00
59513;BME280;45330;51.634;5.562;2022-10-26T10:16:05;101380.63;;;16.08;100.00
59513;BME280;45330;51.634;5.562;2022-10-26T10:18:31;101390.19;;;16.12;100.00
59513;BME280;45330;51.634;5.562;2022-10-26T10:20:58;101385.91;;;16.06;100.00
59513;BME280;45330;51.634;5.562;2022-10-26T10:23:47;101398.88;;;16.14;100.00
59513;BME280;45330;51.634;5.562;2022-10-26T10:26:13;101394.63;;;16.08;100.00
59513;BME280;45330;51.634;5.562;2022-10-26T10:28:40;101415.50;;;16.15;100.00
59513;BME280;45330;51.634;5.562;2022-10-26T10:31:19;101411.06;;;16.17;100.00
59513;BME280;45330;51.634;5.562;2022-10-26T10:33:45;101402.38;;;16.13;100.00
59513;BME280;45330;51.634;5.562;2022-10-26T10:36:16;101427.63;;;16.22;100.00
59513;BME280;45330;51.634;5.562;2022-10-26T10:38:44;101412.00;;;16.14;100.00
59513;BME280;45330;51.634;5.562;2022-10-26T10:41:34;101429.25;;;16.27;100.00
59513;BME280;45330;51.634;5.562;2022-10-26T10:44:22;101417.91;;;16.25;100.00
59513;BME280;45330;51.634;5.562;2022-10-26T10:46:49;101433.38;;;16.39;100.00
59513;BME280;45330;51.634;5.562;2022-10-26T10:49:19;101420.41;;;16.32;100.00
59513;BME280;45330;51.634;5.562;2022-10-26T10:51:47;101437.53;;;16.51;100.00
59513;BME280;45330;51.634;5.562;2022-10-26T10:54:39;101441.84;;;16.52;100.00
59513;BME280;45330;51.634;5.562;2022-10-26T10:59:53;101446.84;;;16.64;100.00
59513;BME280;45330;51.634;5.562;2022-10-26T11:08:25;101463.03;;;16.87;100.00
59513;BME280;45330;51.634;5.562;2022-10-26T11:11:17;101464.06;;;16.79;100.00
59513;BME280;45330;51.634;5.562;2022-10-26T11:13:47;101463.94;;;16.84;100.00
59513;BME280;45330;51.634;5.562;2022-10-26T11:16:19;101471.72;;;16.92;100.00
59513;BME280;45330;51.634;5.562;2022-10-26T11:19:00;101470.28;;;17.16;100.00
59513;BME280;45330;51.634;5.562;2022-10-26T11:21:29;101461.41;;;17.20;100.00
59513;BME280;45330;51.634;5.562;2022-10-26T11:26:29;101461.38;;;17.22;100.00
59513;BME280;45330;51.634;5.562;2022-10-26T11:29:01;101473.44;;;17.30;100.00
59513;BME280;45330;51.634;5.562;2022-10-26T11:31:42;101468.97;;;17.32;100.00
59513;BME280;45330;51.634;5.562;2022-10-26T11:34:30;101492.16;;;17.54;100.00
59513;BME280;45330;51.634;5.562;2022-10-26T11:37:04;101497.13;;;17.66;100.00
59513;BME280;45330;51.634;5.562;2022-10-26T11:39:41;101492.22;;;17.86;100.00
59513;BME280;45330;51.634;5.562;2022-10-26T11:42:17;101498.69;;;18.08;100.00
59513;BME280;45330;51.634;5.562;2022-10-26T11:44:56;101490.72;;;18.10;100.00
59513;BME280;45330;51.634;5.562;2022-10-26T11:47:56;101497.44;;;17.87;100.00
59513;BME280;45330;51.634;5.562;2022-10-26T11:50:29;101490.25;;;17.59;100.00
59513;BME280;45330;51.634;5.562;2022-10-26T11:53:01;101482.66;;;17.48;100.00
59513;BME280;45330;51.634;5.562;2022-10-26T11:55:30;101496.78;;;17.44;100.00
59513;BME280;45330;51.634;5.562;2022-10-26T11:57:56;101486.50;;;17.34;100.00
59513;BME280;45330;51.634;5.562;2022-10-26T12:00:22;101488.41;;;17.27;100.00
59513;BME280;45330;51.634;5.562;2022-10-26T12:02:51;101496.84;;;17.41;100.00
59513;BME280;45330;51.634;5.562;2022-10-26T12:05:32;101509.22;;;17.38;100.00
59513;BME280;45330;51.634;5.562;2022-10-26T12:08:04;101492.00;;;17.24;100.00
59513;BME280;45330;51.634;5.562;2022-10-26T12:10:36;101493.88;;;17.19;100.00
59513;BME280;45330;51.634;5.562;2022-10-26T12:15:40;101500.78;;;17.23;100.00
59513;BME280;45330;51.634;5.562;2022-10-26T12:18:25;101507.75;;;17.26;100.00
59513;BME280;45330;51.634;5.562;2022-10-26T12:21:02;101502.28;;;17.34;100.00
59513;BME280;45330;51.634;5.562;2022-10-26T12:23:31;101502.22;;;17.37;100.00
59513;BME280;45330;51.634;5.562;2022-10-26T12:34:02;101514.13;;;17.52;100.00
59513;BME280;45330;51.634;5.562;2022-10-26T12:39:32;101519.19;;;17.59;100.00
59513;BME280;45330;51.634;5.562;2022-10-26T12:42:25;101529.47;;;17.70;100.00
59513;BME280;45330;51.634;5.562;2022-10-26T12:55:12;101521.72;;;18.02;100.00
59513;BME280;45330;51.634;5.562;2022-10-26T12:57:46;101538.97;;;18.12;100.00
59513;BME280;45330;51.634;5.562;2022-10-26T13:00:21;101509.53;;;17.97;100.00
59513;BME280;45330;51.634;5.562;2022-10-26T13:08:47;101523.41;;;18.03;100.00
59513;BME280;45330;51.634;5.562;2022-10-26T13:11:18;101521.75;;;17.98;100.00
59513;BME280;45330;51.634;5.562;2022-10-26T13:13:51;101512.28;;;17.91;100.00
59513;BME280;45330;51.634;5.562;2022-10-26T13:16:18;101523.66;;;17.93;100.00
59513;BME280;45330;51.634;5.562;2022-10-26T13:18:45;101523.69;;;17.90;100.00
59513;BME280;45330;51.634;5.562;2022-10-26T13:21:19;101533.28;;;17.94;100.00
59513;BME280;45330;51.634;5.562;2022-10-26T13:26:27;101543.06;;;17.89;100.00
59513;BME280;45330;51.634;5.562;2022-10-26T13:28:58;101525.66;;;17.83;100.00
59513;BME280;45330;51.634;5.562;2022-10-26T13:33:55;101536.03;;;17.88;100.00
59513;BME280;45330;51.634;5.562;2022-10-26T13:36:41;101536.94;;;17.87;100.00
59513;BME280;45330;51.634;5.562;2022-10-26T13:39:17;101542.13;;;17.90;100.00
59513;BME280;45330;51.634;5.562;2022-10-26T13:41:45;101550.81;;;17.95;100.00
59513;BME280;45330;51.634;5.562;2022-10-26T13:44:30;101538.63;;;17.91;100.00
59513;BME280;45330;51.634;5.562;2022-10-26T13:47:02;101549.03;;;17.96;100.00
59513;BME280;45330;51.634;5.562;2022-10-26T13:49:46;101537.59;;;17.97;100.00
59513;BME280;45330;51.634;5.562;2022-10-26T13:52:19;101552.50;;;17.98;100.00
59513;BME280;45330;51.634;5.562;2022-10-26T13:54:52;101552.56;;;17.96;100.00
59513;BME280;45330;51.634;5.562;2022-10-26T13:57:28;101560.31;;;18.01;100.00
59513;BME280;45330;51.634;5.562;2022-10-26T13:59:57;101559.50;;;17.99;100.00
59513;BME280;45330;51.634;5.562;2022-10-26T14:02:27;101555.09;;;17.99;100.00
59513;BME280;45330;51.634;5.562;2022-10-26T14:05:00;101556.09;;;17.95;100.00
59513;BME280;45330;51.634;5.562;2022-10-26T14:07:53;101560.53;;;17.93;100.00
59513;BME280;45330;51.634;5.562;2022-10-26T14:10:29;101561.47;;;17.91;100.00
59513;BME280;45330;51.634;5.562;2022-10-26T14:12:56;101551.03;;;17.86;100.00
59513;BME280;45330;51.634;5.562;2022-10-26T14:15:24;101547.56;;;17.84;100.00
59513;BME280;45330;51.634;5.562;2022-10-26T14:17:52;101554.47;;;17.88;100.00
59513;BME280;45330;51.634;5.562;2022-10-26T14:20:20;101555.34;;;17.89;100.00
59513;BME280;45330;51.634;5.562;2022-10-26T14:22:47;101571.06;;;17.93;100.00
59513;BME280;45330;51.634;5.562;2022-10-26T14:25:24;101574.59;;;17.92;100.00
59513;BME280;45330;51.634;5.562;2022-10-26T14:27:51;101574.69;;;17.88;100.00
59513;BME280;45330;51.634;5.562;2022-10-26T14:30:21;101580.66;;;17.94;100.00
59513;BME280;45330;51.634;5.562;2022-10-26T14:32:47;101578.84;;;17.98;100.00
59513;BME280;45330;51.634;5.562;2022-10-26T14:35:13;101603.34;;;18.02;100.00
59513;BME280;45330;51.634;5.562;2022-10-26T14:37:49;101619.84;;;18.08;100.00
59513;BME280;45330;51.634;5.562;2022-10-26T14:40:18;101608.53;;;18.05;100.00
59513;BME280;45330;51.634;5.562;2022-10-26T14:42:47;101618.97;;;18.08;100.00